Time;durP1;ratioP1;P1;durP2;ratioP2;P2;SDS_P1;SDS_P2;PMS_P1;PMS_P2;Temp;Humidity;BMP_temperature;BMP_pressure;BME280_temperature;BME280_humidity;BME280_pressure;Samples;Min_cycle;Max_cycle;Signal;HPM_P1;HPM_P2
2024/03/02 00:00:26;;;;;;;;;;;;;;;-1.74;100.00;101154.85;109413;1252;74778;-53
2024/03/02 00:02:54;;;;;;;;;;;;;;;-1.76;100.00;101149.31;109467;1252;65651;-53
2024/03/02 00:05:22;;;;;;;;;;;;;;;-1.77;100.00;101146.15;109376;1252;71888;-53
2024/03/02 00:07:56;;;;;;;;;;;;;;;-1.77;100.00;101140.21;109406;1252;59684;-53
2024/03/02 00:10:29;;;;;;;;;;;;;;;-1.78;100.00;101138.39;109291;1252;59286;-53
2024/03/02 00:12:57;;;;;;;;;;;;;;;-1.79;100.00;101132.64;109355;1252;74709;-59
2024/03/02 00:15:27;;;;;;;;;;;;;;;-1.81;100.00;101137.16;109454;1253;67335;-53
2024/03/02 00:17:55;;;;;;;;;;;;;;;-1.82;100.00;101138.92;109403;1252;72719;-53
2024/03/02 00:20:23;;;;;;;;;;;;;;;-1.84;100.00;101142.42;109414;1252;60667;-54
2024/03/02 00:22:50;;;;;;;;;;;;;;;-1.84;100.00;101150.29;109474;1252;58881;-58
2024/03/02 00:25:18;;;;;;;;;;;;;;;-1.85;100.00;101148.64;109399;1252;75118;-53
2024/03/02 00:27:49;;;;;;;;;;;;;;;-1.84;100.00;101157.45;109463;1252;67008;-53
2024/03/02 00:30:35;;;;;;;;;;;;;;;-1.84;100.00;101157.92;109483;1252;71780;-53
2024/03/02 00:33:07;;;;;;;;;;;;;;;-1.85;100.00;101165.84;109476;1251;60912;-53
2024/03/02 00:35:34;;;;;;;;;;;;;;;-1.87;100.00;101161.69;109459;1252;58887;-53
2024/03/02 00:38:06;;;;;;;;;;;;;;;-1.88;100.00;101164.46;109424;1252;74721;-53
2024/03/02 00:40:33;;;;;;;;;;;;;;;-1.89;100.00;101163.15;109451;1252;66166;-53
2024/03/02 00:43:01;;;;;;;;;;;;;;;-1.88;100.00;101162.44;109365;1252;72766;-53
2024/03/02 00:45:29;;;;;;;;;;;;;;;-1.88;100.00;101161.55;109444;1252;61034;-52
2024/03/02 00:47:56;;;;;;;;;;;;;;;-1.86;100.00;101161.12;109410;1252;59831;-53
2024/03/02 00:50:24;;;;;;;;;;;;;;;-1.84;100.00;101154.40;109424;1252;73386;-53
2024/03/02 00:52:57;;;;;;;;;;;;;;;-1.84;100.00;101152.11;109431;1251;67039;-54
2024/03/02 00:55:25;;;;;;;;;;;;;;;-1.83;100.00;101146.45;109480;1251;72747;-53
2024/03/02 00:57:52;;;;;;;;;;;;;;;-1.84;100.00;101144.65;109427;1251;59388;-53
2024/03/02 01:00:20;;;;;;;;;;;;;;;-1.87;100.00;101141.38;109480;1251;58979;-54
2024/03/02 01:02:47;;;;;;;;;;;;;;;-1.87;100.00;101141.58;109436;1251;72945;-53
2024/03/02 01:05:15;;;;;;;;;;;;;;;-1.89;100.00;101144.26;109467;1253;68380;-53
2024/03/02 01:07:42;;;;;;;;;;;;;;;-1.91;100.00;101149.60;109462;1251;72824;-52
2024/03/02 01:10:10;;;;;;;;;;;;;;;-1.90;100.00;101151.27;109471;1251;59355;-53
2024/03/02 01:12:38;;;;;;;;;;;;;;;-1.92;100.00;101150.52;109496;1251;59212;-54
2024/03/02 01:15:07;;;;;;;;;;;;;;;-1.92;100.00;101151.20;109421;1252;74752;-59
2024/03/02 01:17:35;;;;;;;;;;;;;;;-1.91;100.00;101150.48;109508;1251;66915;-53
2024/03/02 01:20:03;;;;;;;;;;;;;;;-1.92;100.00;101145.91;109457;1251;71451;-54
2024/03/02 01:22:30;;;;;;;;;;;;;;;-1.95;100.00;101145.24;109406;1252;59817;-54
2024/03/02 01:24:58;;;;;;;;;;;;;;;-2.00;100.00;101141.39;109430;1252;59013;-59
2024/03/02 01:27:26;;;;;;;;;;;;;;;-2.06;100.00;101139.35;109411;1251;74777;-53
2024/03/02 01:29:54;;;;;;;;;;;;;;;-2.10;100.00;101138.50;109478;1251;66932;-54
2024/03/02 01:32:22;;;;;;;;;;;;;;;-2.13;100.00;101136.30;109468;1253;72679;-53
2024/03/02 01:34:49;;;;;;;;;;;;;;;-2.14;100.00;101126.35;109490;1253;60953;-53
2024/03/02 01:37:16;;;;;;;;;;;;;;;-2.15;100.00;101128.58;109429;1252;58891;-53
2024/03/02 01:39:44;;;;;;;;;;;;;;;-2.15;100.00;101126.22;109468;1253;75221;-53
2024/03/02 01:42:12;;;;;;;;;;;;;;;-2.15;100.00;101125.35;109504;1252;64632;-53
2024/03/02 01:44:40;;;;;;;;;;;;;;;-2.15;100.00;101125.20;109459;1252;71428;-54
2024/03/02 01:47:07;;;;;;;;;;;;;;;-2.15;100.00;101123.83;109518;1251;59436;-53
2024/03/02 01:49:35;;;;;;;;;;;;;;;-2.14;100.00;101127.17;109475;1251;59844;-53
2024/03/02 01:52:02;;;;;;;;;;;;;;;-2.15;100.00;101122.30;109525;1251;74670;-52
2024/03/02 01:54:30;;;;;;;;;;;;;;;-2.17;100.00;101122.75;109492;1251;65651;-53
2024/03/02 01:56:57;;;;;;;;;;;;;;;-2.18;100.00;101123.97;109522;1251;71457;-54
2024/03/02 01:59:25;;;;;;;;;;;;;;;-2.20;100.00;101122.86;109489;1251;60972;-59
2024/03/02 02:01:52;;;;;;;;;;;;;;;-2.23;100.00;101123.36;109475;1251;59062;-53
2024/03/02 02:04:26;;;;;;;;;;;;;;;-2.25;100.00;101119.88;109429;1251;73644;-53
2024/03/02 02:06:54;;;;;;;;;;;;;;;-2.28;100.00;101118.15;109475;1251;67635;-54
2024/03/02 02:09:22;;;;;;;;;;;;;;;-2.29;100.00;101112.10;109435;1251;72839;-57
2024/03/02 02:11:50;;;;;;;;;;;;;;;-2.29;100.00;101118.73;109452;1251;59546;-54
2024/03/02 02:14:17;;;;;;;;;;;;;;;-2.30;100.00;101123.73;109477;1253;58991;-53
2024/03/02 02:16:45;;;;;;;;;;;;;;;-2.31;100.00;101126.67;109559;1251;73823;-52
2024/03/02 02:19:13;;;;;;;;;;;;;;;-2.31;100.00;101127.35;109537;1252;64659;-53
2024/03/02 02:21:43;;;;;;;;;;;;;;;-2.33;100.00;101124.70;109426;1252;72796;-54
2024/03/02 02:24:13;;;;;;;;;;;;;;;-2.35;100.00;101120.40;109483;1252;59356;-53
2024/03/02 02:26:40;;;;;;;;;;;;;;;-2.37;100.00;101121.04;109514;1251;59669;-53
2024/03/02 02:29:08;;;;;;;;;;;;;;;-2.39;100.00;101122.80;109549;1251;74733;-52
2024/03/02 02:31:38;;;;;;;;;;;;;;;-2.39;100.00;101122.14;109476;1251;65561;-53
2024/03/02 02:34:06;;;;;;;;;;;;;;;-2.42;100.00;101119.58;109479;1252;71480;-53
2024/03/02 02:36:33;;;;;;;;;;;;;;;-2.42;100.00;101115.00;109476;1251;59429;-53
2024/03/02 02:39:03;;;;;;;;;;;;;;;-2.42;100.00;101113.65;109517;1251;59973;-54
2024/03/02 02:41:30;;;;;;;;;;;;;;;-2.42;100.00;101118.08;109500;1251;73813;-53
2024/03/02 02:43:58;;;;;;;;;;;;;;;-2.42;100.00;101119.77;109445;1253;67439;-54
2024/03/02 02:46:25;;;;;;;;;;;;;;;-2.44;100.00;101124.09;109471;1251;72682;-54
2024/03/02 02:48:53;;;;;;;;;;;;;;;-2.45;100.00;101123.99;109514;1252;59278;-53
2024/03/02 02:51:21;;;;;;;;;;;;;;;-2.44;100.00;101123.43;109528;1251;59893;-53
2024/03/02 02:53:48;;;;;;;;;;;;;;;-2.45;100.00;101120.41;109384;1251;74789;-58
2024/03/02 02:56:16;;;;;;;;;;;;;;;-2.45;100.00;101122.28;109542;1251;66947;-53
2024/03/02 02:58:43;;;;;;;;;;;;;;;-2.46;100.00;101123.71;109496;1252;71435;-53
2024/03/02 03:01:11;;;;;;;;;;;;;;;-2.45;100.00;101125.04;109477;1252;58997;-52
2024/03/02 03:03:38;;;;;;;;;;;;;;;-2.47;100.00;101124.41;109498;1252;59128;-53
2024/03/02 03:06:06;;;;;;;;;;;;;;;-2.47;100.00;101123.77;109447;1252;75154;-53
2024/03/02 03:08:34;;;;;;;;;;;;;;;-2.47;100.00;101126.63;109505;1251;65805;-53
2024/03/02 03:11:01;;;;;;;;;;;;;;;-2.48;100.00;101124.31;109465;1252;71276;-53
2024/03/02 03:13:29;;;;;;;;;;;;;;;-2.48;100.00;101125.83;109476;1251;58939;-53
2024/03/02 03:15:56;;;;;;;;;;;;;;;-2.48;100.00;101128.89;109461;1251;60898;-53
2024/03/02 03:18:24;;;;;;;;;;;;;;;-2.49;100.00;101127.92;109480;1251;74702;-53
2024/03/02 03:20:52;;;;;;;;;;;;;;;-2.51;100.00;101124.80;109479;1252;65624;-53
2024/03/02 03:23:19;;;;;;;;;;;;;;;-2.52;100.00;101123.52;109474;1251;72683;-53
2024/03/02 03:25:46;;;;;;;;;;;;;;;-2.56;100.00;101122.33;109421;1251;60947;-59
2024/03/02 03:28:14;;;;;;;;;;;;;;;-2.59;100.00;101125.70;109464;1251;59142;-53
2024/03/02 03:30:42;;;;;;;;;;;;;;;-2.61;100.00;101122.44;109477;1251;74740;-54
2024/03/02 03:33:09;;;;;;;;;;;;;;;-2.61;100.00;101122.63;109448;1252;66924;-53
2024/03/02 03:35:37;;;;;;;;;;;;;;;-2.63;100.00;101117.95;109479;1252;72769;-54
2024/03/02 03:38:05;;;;;;;;;;;;;;;-2.63;100.00;101114.88;109467;1252;59054;-53
2024/03/02 03:40:32;;;;;;;;;;;;;;;-2.64;100.00;101116.44;109451;1251;60203;-53
2024/03/02 03:42:59;;;;;;;;;;;;;;;-2.65;100.00;101120.57;109515;1251;73395;-53
2024/03/02 03:45:27;;;;;;;;;;;;;;;-2.67;100.00;101121.86;109551;1251;66332;-53
2024/03/02 03:47:55;;;;;;;;;;;;;;;-2.69;100.00;101116.52;109432;1251;71888;-58
2024/03/02 03:50:23;;;;;;;;;;;;;;;-2.66;100.00;101116.74;109482;1251;58901;-54
2024/03/02 03:52:50;;;;;;;;;;;;;;;-2.66;100.00;101114.86;109565;1251;59128;-52
2024/03/02 03:55:18;;;;;;;;;;;;;;;-2.65;100.00;101121.27;109477;1251;74701;-54
2024/03/02 03:57:45;;;;;;;;;;;;;;;-2.65;100.00;101124.32;109526;1251;65617;-53
2024/03/02 04:00:13;;;;;;;;;;;;;;;-2.67;100.00;101123.55;109464;1251;71458;-58
2024/03/02 04:02:41;;;;;;;;;;;;;;;-2.68;100.00;101122.27;109468;1253;59394;-53
2024/03/02 04:05:10;;;;;;;;;;;;;;;-2.67;100.00;101120.20;109545;1251;59891;-52
2024/03/02 04:07:40;;;;;;;;;;;;;;;-2.68;100.00;101120.40;109519;1251;74769;-52
2024/03/02 04:10:08;;;;;;;;;;;;;;;-2.70;100.00;101114.54;109482;1251;67153;-53
2024/03/02 04:12:38;;;;;;;;;;;;;;;-2.70;100.00;101115.90;109496;1251;72009;-53
2024/03/02 04:15:07;;;;;;;;;;;;;;;-2.70;100.00;101110.94;109460;1251;59484;-53
2024/03/02 04:17:35;;;;;;;;;;;;;;;-2.68;100.00;101116.48;109476;1251;59023;-53
2024/03/02 04:20:05;;;;;;;;;;;;;;;-2.66;100.00;101110.60;109518;1251;74720;-54
2024/03/02 04:22:33;;;;;;;;;;;;;;;-2.62;100.00;101112.64;109465;1253;66763;-53
2024/03/02 04:25:00;;;;;;;;;;;;;;;-2.59;100.00;101110.74;109515;1251;71424;-52
2024/03/02 04:27:28;;;;;;;;;;;;;;;-2.52;100.00;101109.85;109546;1251;58910;-53
2024/03/02 04:29:56;;;;;;;;;;;;;;;-2.41;100.00;101107.43;109536;1251;59015;-53
2024/03/02 04:32:23;;;;;;;;;;;;;;;-2.28;100.00;101107.42;109502;1251;73460;-58
2024/03/02 04:34:50;;;;;;;;;;;;;;;-2.10;100.00;101111.83;109523;1250;66583;-53
2024/03/02 04:37:18;;;;;;;;;;;;;;;-1.94;100.00;101110.92;109474;1251;71417;-53
2024/03/02 04:39:45;;;;;;;;;;;;;;;-1.78;100.00;101107.85;109479;1253;58944;-53
2024/03/02 04:42:13;;;;;;;;;;;;;;;-1.59;100.00;101106.83;109507;1251;59779;-54
2024/03/02 04:44:40;;;;;;;;;;;;;;;-1.39;100.00;101110.53;109474;1256;74740;-53
2024/03/02 04:47:08;;;;;;;;;;;;;;;-1.20;100.00;101112.38;109516;1251;65626;-54
2024/03/02 04:49:35;;;;;;;;;;;;;;;-1.00;100.00;101112.59;109499;1251;72738;-53
2024/03/02 04:52:03;;;;;;;;;;;;;;;-0.85;100.00;101109.16;109422;1251;59809;-52
2024/03/02 04:54:31;;;;;;;;;;;;;;;-0.83;100.00;101104.94;109463;1251;59060;-60
2024/03/02 04:56:58;;;;;;;;;;;;;;;-0.85;100.00;101095.53;109488;1253;73430;-52
2024/03/02 04:59:26;;;;;;;;;;;;;;;-0.86;100.00;101095.55;109525;1251;65522;-54
2024/03/02 05:01:53;;;;;;;;;;;;;;;-0.82;100.00;101095.69;109497;1251;72461;-54
2024/03/02 05:04:21;;;;;;;;;;;;;;;-0.79;100.00;101097.88;109402;1251;60229;-59
2024/03/02 05:06:52;;;;;;;;;;;;;;;-0.78;100.00;101088.64;109423;1253;58929;-54
2024/03/02 05:09:20;;;;;;;;;;;;;;;-0.81;100.00;101089.45;109552;1251;74681;-53
2024/03/02 05:12:22;;;;;;;;;;;;;;;-0.83;100.00;101089.23;109540;1251;66965;-54
2024/03/02 05:14:36;;;;;;;;;;;;;;;-0.80;100.00;101084.29;109482;1251;73440;-53
2024/03/02 05:17:04;;;;;;;;;;;;;;;-0.76;100.00;101083.89;109470;1251;60955;-53
2024/03/02 05:19:32;;;;;;;;;;;;;;;-0.75;100.00;101078.05;109476;1251;58929;-53
2024/03/02 05:21:59;;;;;;;;;;;;;;;-0.77;100.00;101074.56;109552;1253;74699;-53
2024/03/02 05:24:27;;;;;;;;;;;;;;;-0.78;100.00;101074.80;109445;1251;65821;-54
2024/03/02 05:26:55;;;;;;;;;;;;;;;-0.75;100.00;101074.77;109496;1251;71446;-53
2024/03/02 05:29:22;;;;;;;;;;;;;;;-0.67;100.00;101071.27;109496;1253;61036;-53
2024/03/02 05:31:50;;;;;;;;;;;;;;;-0.60;100.00;101066.05;109534;1251;59022;-53
2024/03/02 05:34:18;;;;;;;;;;;;;;;-0.51;100.00;101063.27;109465;1254;74167;-54
2024/03/02 05:36:46;;;;;;;;;;;;;;;-0.40;100.00;101064.31;109572;1251;65997;-53
2024/03/02 05:39:13;;;;;;;;;;;;;;;-0.25;100.00;101065.63;109482;1253;71905;-54
2024/03/02 05:41:41;;;;;;;;;;;;;;;-0.12;100.00;101061.59;109513;1251;58888;-53
2024/03/02 05:44:08;;;;;;;;;;;;;;;0.01;100.00;101051.45;109479;1251;59868;-53
2024/03/02 05:46:36;;;;;;;;;;;;;;;0.12;100.00;101048.65;109429;1251;74717;-54
2024/03/02 05:49:07;;;;;;;;;;;;;;;0.21;100.00;101046.90;109500;1251;65766;-53
2024/03/02 05:51:35;;;;;;;;;;;;;;;0.28;100.00;101043.42;109488;1251;73210;-54
2024/03/02 05:54:03;;;;;;;;;;;;;;;0.34;100.00;101037.88;109505;1253;58952;-53
2024/03/02 05:56:30;;;;;;;;;;;;;;;0.41;100.00;101037.40;109534;1251;58953;-54
2024/03/02 05:59:13;;;;;;;;;;;;;;;0.43;100.00;101040.70;109508;1251;75186;-53
2024/03/02 06:01:44;;;;;;;;;;;;;;;0.34;100.00;101032.40;109482;1253;67457;-52
2024/03/02 06:04:11;;;;;;;;;;;;;;;0.25;100.00;101025.45;109479;1254;71476;-54
2024/03/02 06:06:39;;;;;;;;;;;;;;;0.19;100.00;101020.55;109443;1251;59661;-54
2024/03/02 06:09:12;;;;;;;;;;;;;;;0.11;100.00;101018.80;109512;1251;59879;-55
2024/03/02 06:11:40;;;;;;;;;;;;;;;0.03;100.00;101020.00;109509;1251;75143;-54
2024/03/02 06:14:08;;;;;;;;;;;;;;;-0.04;100.00;101016.65;109529;1251;67360;-54
2024/03/02 06:16:35;;;;;;;;;;;;;;;-0.06;100.00;101018.88;109505;1251;72774;-54
2024/03/02 06:19:03;;;;;;;;;;;;;;;-0.10;100.00;101021.17;109472;1251;59189;-51
2024/03/02 06:21:30;;;;;;;;;;;;;;;-0.14;100.00;101019.73;109521;1251;59931;-54
2024/03/02 06:23:58;;;;;;;;;;;;;;;-0.19;100.00;101017.33;109514;1251;74828;-54
2024/03/02 06:26:26;;;;;;;;;;;;;;;-0.24;100.00;101022.35;109519;1251;67824;-54
2024/03/02 06:28:54;;;;;;;;;;;;;;;-0.26;100.00;101021.64;109497;1251;73108;-54
2024/03/02 06:31:21;;;;;;;;;;;;;;;-0.28;100.00;101030.80;109477;1251;60863;-54
2024/03/02 06:33:49;;;;;;;;;;;;;;;-0.31;100.00;101037.80;109492;1252;58883;-55
2024/03/02 06:36:17;;;;;;;;;;;;;;;-0.37;100.00;101034.10;109559;1251;74682;-55
2024/03/02 06:38:44;;;;;;;;;;;;;;;-0.41;100.00;101038.09;109487;1251;66341;-58
2024/03/02 06:41:12;;;;;;;;;;;;;;;-0.40;100.00;101046.10;109555;1251;72675;-53
2024/03/02 06:43:39;;;;;;;;;;;;;;;-0.41;100.00;101046.15;109559;1251;59648;-54
2024/03/02 06:46:09;;;;;;;;;;;;;;;-0.44;100.00;101046.48;109519;1251;59416;-52
2024/03/02 06:48:37;;;;;;;;;;;;;;;-0.49;100.00;101056.36;109461;1251;74738;-55
2024/03/02 06:51:05;;;;;;;;;;;;;;;-0.55;100.00;101059.77;109475;1251;67393;-54
2024/03/02 06:53:33;;;;;;;;;;;;;;;-0.58;100.00;101058.55;109446;1254;72694;-52
2024/03/02 06:56:01;;;;;;;;;;;;;;;-0.59;100.00;101059.19;109326;1256;58932;-54
2024/03/02 06:58:29;;;;;;;;;;;;;;;-0.61;100.00;101050.58;109395;1256;59022;-55
2024/03/02 07:00:56;;;;;;;;;;;;;;;-0.60;100.00;101043.38;109427;1253;76766;-54
2024/03/02 07:03:24;;;;;;;;;;;;;;;-0.57;100.00;101041.45;109449;1251;65899;-54
2024/03/02 07:05:52;;;;;;;;;;;;;;;-0.53;100.00;101039.50;109461;1251;71867;-54
2024/03/02 07:08:19;;;;;;;;;;;;;;;-0.50;100.00;101035.40;109415;1251;59401;-55
2024/03/02 07:10:47;;;;;;;;;;;;;;;-0.48;100.00;101035.64;109425;1252;59495;-54
2024/03/02 07:13:14;;;;;;;;;;;;;;;-0.47;100.00;101040.00;109318;1251;193849;-52
2024/03/02 07:16:05;;;;;;;;;;;;;;;-0.44;100.00;101041.23;109419;1253;65727;-51
2024/03/02 07:18:41;;;;;;;;;;;;;;;-0.44;100.00;101045.09;109423;1251;72741;-54
2024/03/02 07:21:09;;;;;;;;;;;;;;;-0.42;100.00;101040.05;109413;1254;61003;-54
2024/03/02 07:23:36;;;;;;;;;;;;;;;-0.42;100.00;101036.98;109440;1251;59891;-53
2024/03/02 07:26:04;;;;;;;;;;;;;;;-0.42;100.00;101031.17;109395;1254;73442;-53
2024/03/02 07:28:34;;;;;;;;;;;;;;;-0.41;100.00;101033.12;109487;1251;66108;-52
2024/03/02 07:31:02;;;;;;;;;;;;;;;-0.38;100.00;101032.09;109460;1253;72655;-52
2024/03/02 07:33:30;;;;;;;;;;;;;;;-0.34;100.00;101034.05;109473;1255;58964;-51
2024/03/02 07:35:59;;;;;;;;;;;;;;;-0.29;100.00;101033.10;109440;1251;59030;-58
2024/03/02 07:38:29;;;;;;;;;;;;;;;-0.22;100.00;101030.30;109444;1253;74735;-53
2024/03/02 07:40:57;;;;;;;;;;;;;;;-0.18;100.00;101022.17;109414;1250;65611;-53
2024/03/02 07:43:24;;;;;;;;;;;;;;;-0.13;100.00;101026.12;109441;1252;72696;-53
2024/03/02 07:45:52;;;;;;;;;;;;;;;-0.07;100.00;101028.15;109445;1251;59649;-53
2024/03/02 07:48:19;;;;;;;;;;;;;;;-0.00;100.00;101032.01;109386;1253;59020;-53
2024/03/02 07:50:47;;;;;;;;;;;;;;;0.07;100.00;101034.61;109422;1254;74933;-52
2024/03/02 07:53:14;;;;;;;;;;;;;;;0.13;100.00;101032.55;109415;1254;66963;-52
2024/03/02 07:55:42;;;;;;;;;;;;;;;0.16;100.00;101032.52;109417;1251;71753;-54
2024/03/02 07:58:11;;;;;;;;;;;;;;;0.20;100.00;101026.60;109391;1253;60150;-52
2024/03/02 08:00:42;;;;;;;;;;;;;;;0.23;100.00;101019.92;109430;1253;59026;-53
2024/03/02 08:03:11;;;;;;;;;;;;;;;0.30;100.00;101017.13;109419;1253;74797;-53
2024/03/02 08:05:38;;;;;;;;;;;;;;;0.36;100.00;101013.30;109395;1253;65617;-56
2024/03/02 08:08:06;;;;;;;;;;;;;;;0.43;100.00;101017.45;109357;1254;71932;-53
2024/03/02 08:10:33;;;;;;;;;;;;;;;0.50;100.00;101013.94;109403;1253;60877;-53
2024/03/02 08:13:01;;;;;;;;;;;;;;;0.56;100.00;101014.25;109386;1254;59063;-52
2024/03/02 08:15:28;;;;;;;;;;;;;;;0.62;100.00;101018.62;109364;1253;73466;-57
2024/03/02 08:17:56;;;;;;;;;;;;;;;0.68;100.00;101013.41;109390;1252;65528;-52
2024/03/02 08:20:23;;;;;;;;;;;;;;;0.74;100.00;101005.53;109414;1254;72695;-53
2024/03/02 08:22:51;;;;;;;;;;;;;;;0.79;100.00;101009.83;109382;1252;61102;-54
2024/03/02 08:25:19;;;;;;;;;;;;;;;0.84;100.00;101014.98;109386;1252;58913;-53
2024/03/02 08:27:46;;;;;;;;;;;;;;;0.87;100.00;101012.34;109411;1254;72431;-52
2024/03/02 08:30:14;;;;;;;;;;;;;;;0.90;100.00;101005.13;109439;1253;67214;-52
2024/03/02 08:32:42;;;;;;;;;;;;;;;0.95;100.00;101005.84;109410;1254;72732;-53
2024/03/02 08:35:09;;;;;;;;;;;;;;;1.00;100.00;101005.17;109395;1252;60960;-54
2024/03/02 08:37:38;;;;;;;;;;;;;;;1.05;100.00;101001.94;109383;1254;58936;-53
2024/03/02 08:40:07;;;;;;;;;;;;;;;1.09;100.00;101002.86;109377;1253;73666;-52
2024/03/02 08:42:34;;;;;;;;;;;;;;;1.11;100.00;101004.77;109419;1252;66985;-53
2024/03/02 08:45:02;;;;;;;;;;;;;;;1.15;100.00;101002.25;109445;1253;72715;-53
2024/03/02 08:47:29;;;;;;;;;;;;;;;1.19;100.00;100999.40;109410;1253;60221;-53
2024/03/02 08:49:57;;;;;;;;;;;;;;;1.25;100.00;100998.52;109388;1252;59925;-54
2024/03/02 08:52:28;;;;;;;;;;;;;;;1.33;100.00;100994.39;109405;1253;74064;-53
2024/03/02 08:54:55;;;;;;;;;;;;;;;1.36;100.00;100991.92;109455;1253;66931;-53
2024/03/02 08:57:23;;;;;;;;;;;;;;;1.39;100.00;100984.34;109421;1254;73151;-53
2024/03/02 08:59:50;;;;;;;;;;;;;;;1.44;100.00;100979.73;109403;1252;59982;-57
2024/03/02 09:02:18;;;;;;;;;;;;;;;1.51;100.00;100968.96;109400;1254;59301;-52
2024/03/02 09:04:45;;;;;;;;;;;;;;;1.58;100.00;100962.50;109430;1254;73376;-53
2024/03/02 09:07:13;;;;;;;;;;;;;;;1.63;100.00;100959.04;109407;1252;65792;-53
2024/03/02 09:09:40;;;;;;;;;;;;;;;1.67;100.00;100959.11;109416;1253;74650;-52
2024/03/02 09:12:08;;;;;;;;;;;;;;;1.69;100.00;100953.33;109371;1253;59651;-53
2024/03/02 09:14:36;;;;;;;;;;;;;;;1.73;100.00;100950.80;109410;1253;59632;-53
2024/03/02 09:17:04;;;;;;;;;;;;;;;1.76;100.00;100949.91;109408;1253;77417;-53
2024/03/02 09:19:31;;;;;;;;;;;;;;;1.83;100.00;100943.57;109427;1253;65844;-52
2024/03/02 09:21:59;;;;;;;;;;;;;;;1.90;100.00;100939.82;109405;1254;72668;-58
2024/03/02 09:24:26;;;;;;;;;;;;;;;1.98;100.00;100932.39;109366;1253;61876;-52
2024/03/02 09:26:54;;;;;;;;;;;;;;;2.06;100.00;100938.17;109453;1253;59059;-52
2024/03/02 09:29:21;;;;;;;;;;;;;;;2.09;100.00;100923.73;109449;1253;72852;-53
2024/03/02 09:31:50;;;;;;;;;;;;;;;2.14;100.00;100919.89;109437;1252;65694;-53
2024/03/02 09:34:18;;;;;;;;;;;;;;;2.24;100.00;100920.39;109359;1253;72766;-57
2024/03/02 09:36:45;;;;;;;;;;;;;;;2.33;100.00;100915.58;109439;1253;61579;-52
2024/03/02 09:39:14;;;;;;;;;;;;;;;2.40;100.00;100908.74;109428;1251;59847;-53
2024/03/02 09:41:41;;;;;;;;;;;;;;;2.47;100.00;100912.98;109441;1252;75820;-53
2024/03/02 09:44:09;;;;;;;;;;;;;;;2.55;100.00;100904.15;109450;1252;65848;-53
2024/03/02 09:46:36;;;;;;;;;;;;;;;2.63;100.00;100899.24;109383;1252;72777;-53
2024/03/02 09:49:04;;;;;;;;;;;;;;;2.70;100.00;100895.99;109395;1253;59667;-53
2024/03/02 09:51:32;;;;;;;;;;;;;;;2.81;100.00;100890.77;109413;1253;60888;-52
2024/03/02 09:54:00;;;;;;;;;;;;;;;2.87;100.00;100883.92;109438;1253;75742;-53
2024/03/02 09:56:44;;;;;;;;;;;;;;;2.93;100.00;100873.64;109395;1254;66937;-53
2024/03/02 09:59:13;;;;;;;;;;;;;;;3.01;100.00;100871.30;109398;1254;72718;-54
2024/03/02 10:01:43;;;;;;;;;;;;;;;3.11;100.00;100870.16;109449;1252;62257;-52
2024/03/02 10:04:10;;;;;;;;;;;;;;;3.21;100.00;100862.23;109396;1252;60895;-53
2024/03/02 10:06:38;;;;;;;;;;;;;;;3.29;100.00;100863.77;109403;1253;74702;-53
2024/03/02 10:09:05;;;;;;;;;;;;;;;3.37;100.00;100851.63;109467;1253;70229;-53
2024/03/02 10:11:36;;;;;;;;;;;;;;;3.49;100.00;100847.79;109435;1253;72756;-52
2024/03/02 10:26:21;;;;;;;7.40;4.20;;;;;;;4.19;100.00;100816.47;103292;1282;612770;-59
2024/03/02 10:28:50;;;;;;;10.00;4.40;;;;;;;4.49;100.00;100808.04;105202;1271;135425;-53
2024/03/02 10:31:18;;;;;;;8.00;3.60;;;;;;;4.58;100.00;100799.76;105249;1257;60087;-54
2024/03/02 10:33:46;;;;;;;10.80;4.80;;;;;;;4.69;100.00;100789.14;105394;1262;73780;-53
2024/03/02 10:36:13;;;;;;;11.90;4.00;;;;;;;4.79;100.00;100786.23;105438;1262;68718;-59
2024/03/02 10:38:41;;;;;;;9.30;3.80;;;;;;;4.91;100.00;100777.06;104930;1263;71505;-53
2024/03/02 10:41:09;;;;;;;8.10;3.70;;;;;;;5.08;100.00;100767.67;105437;1263;59209;-52
2024/03/02 10:43:36;;;;;;;9.20;4.60;;;;;;;5.28;100.00;100759.01;105381;1257;60062;-53
2024/03/02 10:46:04;;;;;;;7.40;4.00;;;;;;;5.47;100.00;100752.82;105266;1257;71408;-54
2024/03/02 10:48:32;;;;;;;8.90;4.40;;;;;;;5.74;100.00;100749.73;105376;1256;65580;-58
2024/03/02 10:51:01;;;;;;;11.10;4.90;;;;;;;5.93;100.00;100738.89;105259;1261;75313;-54
2024/03/02 10:53:30;;;;;;;12.30;4.60;;;;;;;6.03;100.00;100736.52;105373;1261;61761;-52
2024/03/02 10:56:02;;;;;;;9.90;4.30;;;;;;;6.25;100.00;100737.64;105418;1270;61852;-53
2024/03/02 10:58:32;;;;;;;6.70;4.10;;;;;;;6.45;100.00;100723.46;105484;1260;74543;-54
2024/03/02 11:01:02;;;;;;;7.50;4.00;;;;;;;6.71;100.00;100713.56;105413;1261;70490;-53
2024/03/02 11:03:31;;;;;;;9.40;4.30;;;;;;;6.95;100.00;100715.94;105277;1263;74106;-53
2024/03/02 11:05:58;;;;;;;8.70;4.20;;;;;;;7.05;100.00;100704.94;105235;1257;59873;-59
2024/03/02 11:08:26;;;;;;;7.70;3.90;;;;;;;7.21;100.00;100701.83;105306;1261;62654;-54
2024/03/02 11:10:58;;;;;;;9.00;4.10;;;;;;;7.42;100.00;100700.95;105271;1261;75806;-53
2024/03/02 11:13:33;;;;;;;8.30;4.30;;;;;;;7.59;100.00;100696.88;105468;1263;69296;-53
2024/03/02 11:16:30;;;;;;;9.30;4.30;;;;;;;7.75;100.00;100688.89;105129;1264;75420;-58
2024/03/02 11:18:58;;;;;;;10.50;5.20;;;;;;;7.84;100.00;100687.69;105400;1270;60080;-53
2024/03/02 11:21:27;;;;;;;9.60;4.30;;;;;;;7.95;100.00;100686.02;105466;1261;61431;-53
2024/03/02 11:23:55;;;;;;;12.60;4.70;;;;;;;8.10;100.00;100678.61;105284;1262;75369;-53
2024/03/02 11:26:24;;;;;;;8.10;4.30;;;;;;;8.28;100.00;100680.23;105609;1260;70558;-54
2024/03/02 11:28:52;;;;;;;34.90;17.20;;;;;;;8.46;100.00;100681.73;105505;1260;75693;-53
2024/03/02 11:31:19;;;;;;;16.00;6.60;;;;;;;8.61;100.00;100660.25;105149;1262;59657;-53
2024/03/02 11:33:47;;;;;;;11.70;4.80;;;;;;;8.73;100.00;100653.61;105374;1261;60656;-54
2024/03/02 11:36:15;;;;;;;9.90;5.30;;;;;;;8.87;100.00;100649.98;105878;1256;73528;-54
2024/03/02 11:38:43;;;;;;;9.00;5.00;;;;;;;9.01;100.00;100655.17;105334;1261;68411;-54
2024/03/02 11:41:11;;;;;;;10.60;4.80;;;;;;;9.08;100.00;100643.60;105402;1261;75223;-54
2024/03/02 11:43:40;;;;;;;8.40;4.30;;;;;;;9.17;100.00;100645.13;105330;1263;62513;-54
2024/03/02 11:46:08;;;;;;;10.40;4.30;;;;;;;9.25;100.00;100647.92;105405;1260;61652;-54
2024/03/02 11:48:39;;;;;;;11.50;5.00;;;;;;;9.23;100.00;100651.39;105417;1257;75182;-54
2024/03/02 11:51:07;;;;;;;9.80;5.60;;;;;;;9.26;100.00;100646.87;105272;1262;67612;-53
2024/03/02 11:53:35;;;;;;;7.90;5.40;;;;;;;9.37;100.00;100646.43;105440;1261;74576;-58
2024/03/02 11:56:05;;;;;;;12.30;5.90;;;;;;;9.44;100.00;100644.11;105313;1262;60169;-54
2024/03/02 11:58:33;;;;;;;10.10;4.90;;;;;;;9.53;100.00;100653.69;105298;1264;61254;-54
2024/03/02 12:01:02;;;;;;;10.30;5.80;;;;;;;9.60;95.69;100642.70;105230;1262;75637;-54
2024/03/02 12:03:30;;;;;;;10.70;5.20;;;;;;;9.65;96.58;100636.48;105229;1262;68948;-59
2024/03/02 12:05:58;;;;;;;7.50;4.60;;;;;;;9.75;95.26;100642.14;104988;1260;75194;-54
2024/03/02 12:08:26;;;;;;;14.90;5.90;;;;;;;9.82;91.69;100631.61;105235;1267;60684;-55
2024/03/02 12:11:01;;;;;;;12.40;5.90;;;;;;;9.86;89.34;100641.05;105556;1259;61466;-54
2024/03/02 12:13:31;;;;;;;9.90;5.30;;;;;;;9.87;88.80;100631.80;105799;1256;76148;-55
2024/03/02 12:15:59;;;;;;;16.10;5.50;;;;;;;9.91;87.07;100624.89;105652;1258;69623;-54
2024/03/02 12:18:27;;;;;;;9.90;4.40;;;;;;;9.97;82.34;100632.31;105643;1257;75605;-56
2024/03/02 12:20:58;;;;;;;10.10;3.90;;;;;;;9.98;78.70;100631.70;105392;1259;62896;-54
2024/03/02 12:23:26;;;;;;;10.60;4.40;;;;;;;10.03;77.70;100623.27;105580;1257;61458;-54
2024/03/02 12:25:54;;;;;;;10.20;5.00;;;;;;;10.11;72.62;100631.55;105507;1256;74790;-54